Time;durP1;ratioP1;P1;durP2;ratioP2;P2;SDS_P1;SDS_P2;PMS_P1;PMS_P2;Temp;Humidity;BMP_temperature;BMP_pressure;BME280_temperature;BME280_humidity;BME280_pressure;Samples;Min_cycle;Max_cycle;Signal;HPM_P1;HPM_P2
2022/12/16 00:02:04;;;;;;;18.15;12.85;;;;;;;;;;10311380;28;20082;-62
2022/12/16 00:07:03;;;;;;;17.70;14.13;;;;;;;;;;10312034;28;20079;-61
2022/12/16 00:12:01;;;;;;;17.67;12.95;;;;;;;;;;10309916;28;20049;-62
2022/12/16 00:16:59;;;;;;;14.88;11.70;;;;;;;;;;10313485;28;20454;-62
2022/12/16 00:21:59;;;;;;;23.05;15.70;;;;;;;;;;10313715;28;20468;-62
2022/12/16 00:26:57;;;;;;;45.55;25.17;;;;;;;;;;10294259;28;20044;-62
2022/12/16 00:31:55;;;;;;;41.40;14.98;;;;;;;;;;10301454;28;20072;-63
2022/12/16 00:36:54;;;;;;;20.17;14.77;;;;;;;;;;10320245;28;20218;-62
2022/12/16 00:41:54;;;;;;;25.25;12.93;;;;;;;;;;10301406;28;20083;-63
2022/12/16 00:46:52;;;;;;;13.77;11.57;;;;;;;;;;10319929;28;20075;-62
2022/12/16 00:51:52;;;;;;;15.60;11.82;;;;;;;;;;10320164;28;20075;-62
2022/12/16 00:56:52;;;;;;;18.42;10.65;;;;;;;;;;10316505;28;20091;-62
2022/12/16 01:01:52;;;;;;;18.17;11.68;;;;;;;;;;10319177;28;20071;-62
2022/12/16 01:06:53;;;;;;;12.90;11.07;;;;;;;;;;10318418;28;20075;-63
2022/12/16 01:11:52;;;;;;;18.75;11.02;;;;;;;;;;10318889;28;20508;-62
2022/12/16 01:16:53;;;;;;;21.98;10.70;;;;;;;;;;10318077;28;20102;-63
2022/12/16 01:21:51;;;;;;;17.58;10.52;;;;;;;;;;10317588;28;20067;-62
2022/12/16 01:26:50;;;;;;;34.75;12.90;;;;;;;;;;10316377;28;20068;-63
2022/12/16 01:31:49;;;;;;;20.65;13.20;;;;;;;;;;10316009;28;20425;-62
2022/12/16 01:36:48;;;;;;;14.80;11.20;;;;;;;;;;10316399;28;20080;-62
2022/12/16 01:41:47;;;;;;;20.67;14.23;;;;;;;;;;10315258;28;20080;-63
2022/12/16 01:46:49;;;;;;;25.98;13.05;;;;;;;;;;10317154;28;20483;-63
2022/12/16 01:51:49;;;;;;;30.48;13.68;;;;;;;;;;10317917;28;20084;-62
2022/12/16 01:56:52;;;;;;;;;;;;;;;;;;10316640;28;20068;-62
2022/12/16 02:01:50;;;;;;;33.83;10.52;;;;;;;;;;10316153;28;20380;-63
2022/12/16 02:06:50;;;;;;;21.10;10.20;;;;;;;;;;10315258;28;20064;-62
2022/12/16 02:11:59;;;;;;;20.27;8.85;;;;;;;;;;10314677;28;20509;-63
2022/12/16 02:16:59;;;;;;;18.58;9.40;;;;;;;;;;10316121;28;20071;-62
2022/12/16 02:22:07;;;;;;;12.23;8.65;;;;;;;;;;10315934;28;20114;-62
2022/12/16 02:27:35;;;;;;;22.77;10.18;;;;;;;;;;10314997;28;20115;-63
2022/12/16 02:32:39;;;;;;;23.77;10.15;;;;;;;;;;10260676;28;20084;-62
2022/12/16 02:37:41;;;;;;;25.20;9.47;;;;;;;;;;10295140;28;20080;-63
2022/12/16 02:42:41;;;;;;;42.40;10.80;;;;;;;;;;10315941;28;20109;-62
2022/12/16 02:47:41;;;;;;;30.30;9.50;;;;;;;;;;10288452;28;20071;-63
2022/12/16 02:52:39;;;;;;;36.13;10.40;;;;;;;;;;10314330;28;20087;-62
2022/12/16 02:57:44;;;;;;;28.50;10.63;;;;;;;;;;10315516;28;20548;-63
2022/12/16 03:02:47;;;;;;;28.55;11.48;;;;;;;;;;10314254;28;20493;-62
2022/12/16 03:07:47;;;;;;;35.60;11.75;;;;;;;;;;10314156;28;20056;-62
2022/12/16 03:12:46;;;;;;;40.22;10.18;;;;;;;;;;10313954;28;20079;-63
2022/12/16 03:17:46;;;;;;;26.52;11.02;;;;;;;;;;10315216;28;20481;-63
2022/12/16 03:22:46;;;;;;;35.13;9.40;;;;;;;;;;10314704;28;20084;-62
2022/12/16 03:27:48;;;;;;;24.85;10.20;;;;;;;;;;10314999;28;20048;-62
2022/12/16 03:32:52;;;;;;;43.03;18.25;;;;;;;;;;10314708;28;20068;-62
2022/12/16 03:37:51;;;;;;;34.38;13.60;;;;;;;;;;10285683;28;20055;-62
2022/12/16 03:42:51;;;;;;;43.15;17.02;;;;;;;;;;10311885;28;20450;-63
2022/12/16 03:47:51;;;;;;;60.60;12.02;;;;;;;;;;10309821;28;20060;-63
2022/12/16 03:52:50;;;;;;;42.67;12.40;;;;;;;;;;10311299;28;20493;-63
2022/12/16 03:57:48;;;;;;;31.88;12.88;;;;;;;;;;10311032;28;20072;-63
2022/12/16 04:02:47;;;;;;;75.63;13.48;;;;;;;;;;10311265;28;20072;-63
2022/12/16 04:07:47;;;;;;;68.28;16.25;;;;;;;;;;10321554;28;20071;-63
2022/12/16 04:28:34;;;;;;;48.88;14.80;;;;;;;;;;10318423;28;20057;-62
